createdAt,value
2019-03-01T00:01:33.439Z,11.92
2019-03-01T00:04:58.537Z,11.75
2019-03-01T00:08:12.500Z,11.94
2019-03-01T00:12:31.048Z,11.61
2019-03-01T00:16:49.427Z,11.61
2019-03-01T00:20:33.035Z,11.66
2019-03-01T00:24:51.540Z,11.66
2019-03-01T00:28:31.860Z,11.71
2019-03-01T00:31:55.013Z,11.71
2019-03-01T00:36:07.019Z,11.93
2019-03-01T00:39:55.598Z,11.87
2019-03-01T00:43:31.140Z,11.48
2019-03-01T00:46:05.622Z,11.44
2019-03-01T00:48:39.271Z,11.56
2019-03-01T00:51:13.652Z,11.12
2019-03-01T00:53:47.282Z,11.29
2019-03-01T00:56:21.821Z,11.29
2019-03-01T00:58:56.322Z,11.18
2019-03-01T01:01:30.998Z,10.64
2019-03-01T01:04:06.589Z,10.76
2019-03-01T01:06:40.268Z,10.69
2019-03-01T01:09:15.826Z,10.71
2019-03-01T01:11:50.592Z,10.59
2019-03-01T01:14:24.278Z,10.86
2019-03-01T01:16:58.640Z,10.79
2019-03-01T01:19:33.281Z,10.85
2019-03-01T01:22:07.788Z,10.79
2019-03-01T01:24:42.038Z,10.86
2019-03-01T01:27:16.470Z,10.78
2019-03-01T01:29:51.306Z,11.04
2019-03-01T01:32:25.634Z,11.04
2019-03-01T01:35:00.031Z,10.89
2019-03-01T01:37:34.383Z,10.89
2019-03-01T01:40:09.685Z,10.48
2019-03-01T01:42:43.401Z,10.52
2019-03-01T01:45:17.809Z,10.52
2019-03-01T01:47:52.322Z,10.54
2019-03-01T01:50:26.671Z,10.53
2019-03-01T01:53:01.117Z,10.40
2019-03-01T01:55:35.654Z,10.46
2019-03-01T01:58:10.007Z,10.37
2019-03-01T02:00:44.549Z,10.37
2019-03-01T02:03:19.327Z,10.49
2019-03-01T02:05:54.339Z,10.49
2019-03-01T02:08:28.997Z,10.38
2019-03-01T02:11:04.673Z,10.45
2019-03-01T02:13:39.106Z,10.66
2019-03-01T02:16:13.561Z,10.66
2019-03-01T02:18:47.424Z,10.65
2019-03-01T02:21:21.797Z,10.36
2019-03-01T02:23:56.333Z,10.75
2019-03-01T02:26:31.452Z,10.38
2019-03-01T02:29:05.817Z,10.45
2019-03-01T02:31:48.693Z,10.40
2019-03-01T02:34:23.329Z,10.31
2019-03-01T02:36:57.961Z,10.43
2019-03-01T02:39:33.535Z,10.77
2019-03-01T02:42:07.840Z,10.83
2019-03-01T02:44:42.317Z,10.50
2019-03-01T02:47:17.044Z,10.57
2019-03-01T02:49:51.896Z,10.56
2019-03-01T02:52:26.617Z,10.61
2019-03-01T02:55:01.405Z,10.38
2019-03-01T02:57:35.961Z,10.38
2019-03-01T03:00:20.972Z,10.07
2019-03-01T03:02:55.949Z,10.42
2019-03-01T03:05:30.333Z,10.44
2019-03-01T03:08:06.537Z,10.93
2019-03-01T03:10:41.144Z,10.76
2019-03-01T03:13:15.754Z,10.76
2019-03-01T03:15:52.680Z,10.57
2019-03-01T03:18:26.515Z,10.63
2019-03-01T03:21:01.326Z,10.62
2019-03-01T03:23:35.837Z,10.62
2019-03-01T03:26:10.308Z,10.87
2019-03-01T03:28:46.073Z,10.83
2019-03-01T03:31:21.762Z,11.00
2019-03-01T03:33:56.725Z,10.76
2019-03-01T03:36:30.290Z,10.72
2019-03-01T03:39:09.330Z,10.58
2019-03-01T03:41:43.956Z,10.64
2019-03-01T03:44:18.914Z,10.64
2019-03-01T03:46:53.515Z,10.61
2019-03-01T03:49:28.323Z,10.27
2019-03-01T03:52:02.657Z,10.27
2019-03-01T03:54:37.020Z,10.45
2019-03-01T03:57:11.651Z,10.45
2019-03-01T03:59:45.460Z,10.53
2019-03-01T04:02:19.966Z,10.75
2019-03-01T04:04:54.578Z,10.50
2019-03-01T04:07:29.116Z,10.35
2019-03-01T04:10:04.316Z,10.35
2019-03-01T04:12:39.055Z,10.61
2019-03-01T04:15:14.833Z,10.48
2019-03-01T04:17:49.544Z,10.64
2019-03-01T04:20:24.339Z,10.51
2019-03-01T04:22:58.956Z,10.51
2019-03-01T04:25:33.426Z,10.58
2019-03-01T04:28:07.872Z,10.76
2019-03-01T04:30:42.580Z,10.69
2019-03-01T04:33:16.986Z,10.78
2019-03-01T04:35:51.306Z,10.78
2019-03-01T04:38:26.002Z,10.47
2019-03-01T04:41:00.727Z,10.47
2019-03-01T04:43:34.526Z,10.53
2019-03-01T04:46:08.900Z,10.89
2019-03-01T04:48:43.502Z,10.75
2019-03-01T04:51:17.671Z,10.58
2019-03-01T04:53:52.563Z,10.50
2019-03-01T04:56:27.518Z,10.60
2019-03-01T04:59:01.940Z,10.60
2019-03-01T05:01:36.316Z,10.70
2019-03-01T05:04:12.184Z,10.71
2019-03-01T05:06:46.945Z,10.64
2019-03-01T05:09:21.312Z,10.59
2019-03-01T05:11:55.652Z,10.38
2019-03-01T05:14:30.188Z,10.55
2019-03-01T05:17:05.784Z,10.55
2019-03-01T05:19:40.311Z,10.54
2019-03-01T05:22:17.638Z,10.35
2019-03-01T05:24:52.106Z,10.63
2019-03-01T05:27:26.656Z,10.63
2019-03-01T05:30:00.318Z,10.33
2019-03-01T05:32:34.769Z,10.37
2019-03-01T05:35:09.325Z,10.50
2019-03-01T05:37:43.804Z,10.52
2019-03-01T05:40:18.559Z,10.32
2019-03-01T05:42:53.038Z,10.26
2019-03-01T05:45:27.790Z,10.26
2019-03-01T05:48:02.312Z,10.21
2019-03-01T05:50:36.808Z,10.15
2019-03-01T05:53:11.120Z,10.61
2019-03-01T05:55:45.675Z,10.70
2019-03-01T05:58:35.447Z,10.48
2019-03-01T06:01:46.108Z,10.33
2019-03-01T06:04:49.147Z,10.55
2019-03-01T06:08:35.372Z,10.70
2019-03-01T06:11:36.508Z,10.62
2019-03-01T06:15:05.772Z,10.56
2019-03-01T06:19:06.435Z,10.56
2019-03-01T06:22:43.632Z,10.68
2019-03-01T06:26:09.837Z,9.68
2019-03-01T06:29:53.303Z,9.68
2019-03-01T06:33:44.316Z,9.45
2019-03-01T06:36:58.581Z,9.62
2019-03-01T06:40:37.864Z,9.55
2019-03-01T06:44:14.836Z,9.57
2019-03-01T06:47:41.522Z,9.36
2019-03-01T06:50:18.297Z,9.20
2019-03-01T06:52:52.849Z,9.25
2019-03-01T06:56:01.034Z,9.24
2019-03-01T06:58:58.522Z,9.55
2019-03-01T07:01:44.527Z,9.31
2019-03-01T07:04:20.031Z,9.36
2019-03-01T07:06:54.787Z,9.36
2019-03-01T07:09:29.460Z,9.52
2019-03-01T07:12:03.935Z,9.44
2019-03-01T07:14:39.805Z,9.51
2019-03-01T07:17:14.308Z,9.70
2019-03-01T07:19:48.793Z,9.55
2019-03-01T07:22:23.404Z,9.80
2019-03-01T07:24:58.049Z,9.78
2019-03-01T07:27:33.169Z,9.78
2019-03-01T07:30:08.576Z,9.89
2019-03-01T07:32:42.489Z,10.00
2019-03-01T07:35:17.525Z,9.88
2019-03-01T07:37:54.832Z,9.82
2019-03-01T07:40:29.401Z,9.82
2019-03-01T07:43:04.024Z,10.03
2019-03-01T07:45:40.574Z,10.03
2019-03-01T07:48:14.508Z,9.90
2019-03-01T07:50:49.040Z,9.90
2019-03-01T07:53:23.796Z,9.82
2019-03-01T07:56:00.738Z,10.00
2019-03-01T07:58:36.519Z,10.39
2019-03-01T08:01:11.058Z,9.90
2019-03-01T08:03:49.813Z,9.86
2019-03-01T08:06:27.289Z,10.08
2019-03-01T08:09:04.454Z,10.10
2019-03-01T08:11:40.643Z,10.28
2019-03-01T08:14:14.425Z,10.26
2019-03-01T08:16:52.695Z,10.14
2019-03-01T08:19:25.775Z,10.40
2019-03-01T08:22:02.806Z,10.35
2019-03-01T08:24:37.701Z,10.45
2019-03-01T08:27:14.530Z,10.31
2019-03-01T08:29:48.723Z,10.33
2019-03-01T08:32:22.479Z,10.63
2019-03-01T08:34:57.051Z,10.86
2019-03-01T08:37:31.803Z,10.91
2019-03-01T08:40:14.800Z,10.25
2019-03-01T08:42:49.636Z,10.20
2019-03-01T08:45:23.525Z,10.23
2019-03-01T08:47:58.906Z,10.00
2019-03-01T08:50:34.422Z,10.00
2019-03-01T08:53:11.500Z,10.16
2019-03-01T08:55:45.527Z,10.08
2019-03-01T08:58:20.310Z,10.15
2019-03-01T09:00:59.769Z,10.15
2019-03-01T09:03:43.118Z,10.57
2019-03-01T09:06:18.456Z,10.27
2019-03-01T09:08:53.613Z,10.58
2019-03-01T09:11:27.469Z,10.58
2019-03-01T09:14:01.477Z,10.92
2019-03-01T09:16:37.102Z,11.06
2019-03-01T09:19:11.835Z,11.40
2019-03-01T09:21:50.310Z,11.42
2019-03-01T09:24:25.690Z,11.30
2019-03-01T09:26:59.449Z,11.30
2019-03-01T09:29:41.260Z,11.63
2019-03-01T09:32:10.702Z,11.78
2019-03-01T09:34:47.309Z,11.68
2019-03-01T09:37:22.308Z,12.03
2019-03-01T09:40:05.262Z,11.73
2019-03-01T09:42:33.762Z,11.81
2019-03-01T09:45:13.598Z,11.72
2019-03-01T09:47:48.676Z,11.70
2019-03-01T09:50:25.316Z,11.79
2019-03-01T09:53:00.815Z,11.99
2019-03-01T09:55:37.662Z,11.65
2019-03-01T09:58:11.590Z,11.51
2019-03-01T10:00:56.744Z,11.32
2019-03-01T10:03:31.435Z,11.32
2019-03-01T10:06:05.838Z,11.39
2019-03-01T10:08:40.561Z,11.39
2019-03-01T10:11:15.144Z,11.11
2019-03-01T10:13:50.332Z,11.49
2019-03-01T10:16:24.915Z,11.49
2019-03-01T10:18:59.520Z,11.67
2019-03-01T10:21:37.006Z,11.47
2019-03-01T10:24:11.800Z,10.90
2019-03-01T10:26:46.452Z,11.14
2019-03-01T10:29:21.009Z,11.16
2019-03-01T10:31:55.635Z,11.16
2019-03-01T10:34:30.044Z,11.45
2019-03-01T10:37:04.864Z,11.45
2019-03-01T10:39:39.508Z,10.97
2019-03-01T10:42:14.299Z,11.14
2019-03-01T10:44:49.444Z,11.14
2019-03-01T10:47:24.500Z,11.49
2019-03-01T10:49:59.447Z,11.35
2019-03-01T10:52:33.842Z,11.35
2019-03-01T10:55:12.385Z,11.24
2019-03-01T10:57:47.319Z,11.19
2019-03-01T11:00:25.891Z,11.25
2019-03-01T11:03:03.111Z,11.30
2019-03-01T11:05:38.052Z,11.48
2019-03-01T11:08:13.096Z,11.51
2019-03-01T11:10:47.887Z,11.64
2019-03-01T11:13:22.600Z,12.05
2019-03-01T11:15:56.534Z,12.18
2019-03-01T11:18:31.370Z,12.14
2019-03-01T11:21:06.071Z,12.14
2019-03-01T11:23:40.830Z,12.10
2019-03-01T11:26:15.540Z,12.24
2019-03-01T11:28:51.076Z,11.78
2019-03-01T11:31:25.798Z,11.91
2019-03-01T11:34:00.487Z,11.34
2019-03-01T11:36:35.325Z,11.35
2019-03-01T11:39:12.329Z,11.17
2019-03-01T11:41:47.323Z,11.17
2019-03-01T11:44:21.837Z,11.09
2019-03-01T11:46:57.660Z,10.87
2019-03-01T11:49:31.484Z,11.13
2019-03-01T11:52:06.149Z,11.19
2019-03-01T11:54:41.541Z,11.19
2019-03-01T11:57:18.607Z,11.11
2019-03-01T11:59:52.726Z,11.31
2019-03-01T12:02:27.324Z,11.16
2019-03-01T12:05:02.130Z,11.54
2019-03-01T12:07:39.136Z,11.26
2019-03-01T12:10:20.337Z,11.31
2019-03-01T12:12:55.074Z,11.53
2019-03-01T12:15:30.041Z,11.61
2019-03-01T12:18:05.064Z,11.31
2019-03-01T12:20:40.054Z,11.77
2019-03-01T12:23:15.053Z,11.45
2019-03-01T12:25:49.837Z,11.99
2019-03-01T12:28:27.850Z,11.94
2019-03-01T12:31:02.449Z,11.70
2019-03-01T12:33:36.767Z,11.81
2019-03-01T12:36:10.620Z,11.71
2019-03-01T12:38:48.972Z,11.62
2019-03-01T12:41:25.679Z,11.90
2019-03-01T12:44:02.881Z,11.37
2019-03-01T12:46:37.568Z,11.44
2019-03-01T12:49:14.149Z,11.49
2019-03-01T12:51:50.307Z,11.49
2019-03-01T12:54:25.052Z,11.18
2019-03-01T12:57:00.336Z,10.99
2019-03-01T12:59:35.318Z,11.08
2019-03-01T13:02:09.841Z,11.09
2019-03-01T13:04:44.682Z,11.46
2019-03-01T13:07:19.333Z,11.69
2019-03-01T13:09:53.890Z,11.96
2019-03-01T13:12:29.563Z,12.65
2019-03-01T13:15:04.462Z,13.95
2019-03-01T13:17:39.607Z,14.12
2019-03-01T13:20:14.930Z,14.12
2019-03-01T13:22:50.722Z,14.11
2019-03-01T13:25:29.425Z,14.37
2019-03-01T13:28:04.063Z,14.16
2019-03-01T13:30:38.791Z,14.31
2019-03-01T13:33:14.058Z,14.17
2019-03-01T13:35:48.985Z,14.01
2019-03-01T13:38:24.129Z,14.11
2019-03-01T13:41:02.055Z,13.87
2019-03-01T13:43:35.901Z,13.66
2019-03-01T13:46:10.571Z,13.39
2019-03-01T13:48:44.718Z,13.32
2019-03-01T13:51:19.468Z,13.36
2019-03-01T13:53:54.330Z,14.14
2019-03-01T13:56:28.871Z,14.14
2019-03-01T13:59:03.982Z,14.30
2019-03-01T14:01:39.311Z,14.93
2019-03-01T14:04:14.487Z,15.12
2019-03-01T14:06:49.327Z,14.48
2019-03-01T14:09:27.188Z,14.48
2019-03-01T14:12:00.841Z,14.87
2019-03-01T14:14:36.068Z,14.74
2019-03-01T14:17:11.473Z,15.08
2019-03-01T14:19:46.889Z,15.11
2019-03-01T14:22:21.564Z,15.05
2019-03-01T14:24:55.664Z,15.14
2019-03-01T14:27:30.325Z,15.14
2019-03-01T14:30:08.073Z,15.27
2019-03-01T14:32:42.835Z,15.20
2019-03-01T14:35:20.171Z,15.48
2019-03-01T14:37:55.255Z,15.15
2019-03-01T14:40:33.523Z,14.30
2019-03-01T14:43:08.548Z,14.65
2019-03-01T14:45:44.736Z,14.80
2019-03-01T14:48:20.516Z,15.24
2019-03-01T14:50:56.841Z,15.55
2019-03-01T14:53:34.740Z,15.55
2019-03-01T14:56:26.159Z,15.74
2019-03-01T14:59:40.098Z,15.34
2019-03-01T15:02:41.586Z,14.96
2019-03-01T15:05:19.557Z,14.88
2019-03-01T15:07:55.174Z,14.88
2019-03-01T15:10:32.050Z,14.82
2019-03-01T15:13:06.768Z,14.50
2019-03-01T15:15:41.536Z,14.30
2019-03-01T15:18:15.764Z,14.35
2019-03-01T15:20:56.265Z,14.46
2019-03-01T15:23:28.061Z,13.90
2019-03-01T15:26:04.158Z,13.88
2019-03-01T15:28:58.742Z,14.41
2019-03-01T15:31:33.630Z,14.28
2019-03-01T15:34:07.550Z,14.39
2019-03-01T15:36:42.351Z,14.00
2019-03-01T15:39:19.944Z,13.68
2019-03-01T15:41:54.998Z,13.63
2019-03-01T15:44:29.846Z,13.63
2019-03-01T15:47:04.537Z,13.84
2019-03-01T15:49:39.304Z,13.58
2019-03-01T15:52:14.788Z,13.58
2019-03-01T15:54:50.019Z,13.55
2019-03-01T15:57:24.610Z,13.33
2019-03-01T15:59:59.227Z,12.16
2019-03-01T16:02:33.775Z,12.16
2019-03-01T16:05:09.697Z,11.47
2019-03-01T16:07:44.342Z,11.63
2019-03-01T16:10:19.143Z,12.02
2019-03-01T16:12:53.769Z,12.00
2019-03-01T16:15:28.515Z,11.47
2019-03-01T16:18:02.819Z,10.96
2019-03-01T16:20:37.539Z,10.78
2019-03-01T16:23:12.623Z,10.97
2019-03-01T16:25:47.635Z,10.97
2019-03-01T16:28:21.510Z,10.97
2019-03-01T16:30:57.905Z,10.74
2019-03-01T16:33:35.038Z,10.74
2019-03-01T16:36:16.072Z,11.12
2019-03-01T16:38:50.769Z,11.16
2019-03-01T16:41:25.569Z,11.00
2019-03-01T16:44:06.333Z,11.18
2019-03-01T16:46:39.995Z,11.18
2019-03-01T16:49:14.323Z,11.11
2019-03-01T16:51:50.633Z,11.01
2019-03-01T16:54:28.306Z,11.08
2019-03-01T16:57:02.854Z,11.12
2019-03-01T16:59:39.579Z,11.12
2019-03-01T17:02:14.684Z,10.99
2019-03-01T17:04:49.673Z,10.88
2019-03-01T17:07:24.962Z,11.01
2019-03-01T17:09:59.820Z,11.12
2019-03-01T17:12:34.853Z,10.95
2019-03-01T17:15:15.783Z,10.58
2019-03-01T17:17:50.343Z,10.77
2019-03-01T17:20:24.617Z,10.84
2019-03-01T17:22:59.743Z,10.99
2019-03-01T17:25:34.815Z,10.91
2019-03-01T17:28:09.688Z,10.99
2019-03-01T17:30:46.735Z,11.08
2019-03-01T17:33:20.661Z,11.07
2019-03-01T17:35:54.482Z,11.23
2019-03-01T17:38:28.837Z,11.06
2019-03-01T17:41:06.278Z,11.21
2019-03-01T17:43:40.321Z,11.19
2019-03-01T17:46:15.107Z,11.33
2019-03-01T17:48:49.713Z,11.04
2019-03-01T17:51:23.634Z,11.18
2019-03-01T17:53:58.662Z,10.95
2019-03-01T17:56:33.108Z,11.13
2019-03-01T17:59:08.231Z,11.12
2019-03-01T18:01:44.571Z,11.10
2019-03-01T18:04:18.536Z,11.08
2019-03-01T18:06:53.612Z,10.81
2019-03-01T18:09:28.494Z,10.81
2019-03-01T18:12:02.831Z,10.93
2019-03-01T18:14:37.613Z,10.59
2019-03-01T18:17:12.520Z,10.93
2019-03-01T18:19:47.204Z,10.72
2019-03-01T18:22:23.075Z,10.72
2019-03-01T18:24:58.857Z,11.14
2019-03-01T18:27:33.599Z,10.58
2019-03-01T18:30:16.131Z,10.84
2019-03-01T18:32:51.876Z,10.84
2019-03-01T18:35:26.694Z,10.79
2019-03-01T18:38:01.659Z,10.79
2019-03-01T18:40:36.455Z,10.62
2019-03-01T18:43:13.133Z,10.60
2019-03-01T18:45:48.337Z,10.43
2019-03-01T18:48:23.527Z,10.63
2019-03-01T18:50:58.315Z,10.65
2019-03-01T18:53:33.039Z,10.65
2019-03-01T18:56:08.030Z,10.90
2019-03-01T18:58:45.670Z,10.65
2019-03-01T19:01:19.808Z,10.81
2019-03-01T19:03:54.592Z,10.85
2019-03-01T19:06:29.313Z,10.85
2019-03-01T19:09:06.108Z,10.56
2019-03-01T19:11:41.644Z,10.56
2019-03-01T19:14:16.325Z,10.99
2019-03-01T19:16:51.266Z,10.99
2019-03-01T19:19:29.731Z,11.06
2019-03-01T19:22:02.671Z,10.93
2019-03-01T19:24:43.141Z,10.77
2019-03-01T19:27:15.524Z,10.98
2019-03-01T19:30:10.545Z,10.62
2019-03-01T19:32:54.479Z,10.62
2019-03-01T19:35:40.984Z,10.81
2019-03-01T19:38:26.063Z,10.90
2019-03-01T19:41:12.050Z,10.70
2019-03-01T19:43:57.888Z,10.70
2019-03-01T19:46:39.856Z,10.71
2019-03-01T19:49:29.030Z,10.87
2019-03-01T19:52:14.609Z,10.87
2019-03-01T19:54:55.579Z,11.08
2019-03-01T19:57:37.194Z,11.08
2019-03-01T20:00:27.901Z,10.45
2019-03-01T20:03:14.897Z,10.45
2019-03-01T20:05:59.508Z,10.32
2019-03-01T20:08:45.924Z,10.36
2019-03-01T20:11:40.590Z,10.53
2019-03-01T20:14:30.347Z,10.10
2019-03-01T20:17:21.044Z,10.40
2019-03-01T20:20:09.167Z,10.51
2019-03-01T20:22:55.743Z,10.44
2019-03-01T20:25:57.724Z,10.59
2019-03-01T20:28:39.753Z,10.63
2019-03-01T20:31:29.385Z,10.35
2019-03-01T20:34:20.855Z,10.66
2019-03-01T20:37:15.421Z,10.69
2019-03-01T20:40:09.801Z,10.66
2019-03-01T20:42:59.497Z,10.50
2019-03-01T20:45:54.599Z,10.46
2019-03-01T20:48:42.839Z,10.31
2019-03-01T20:51:26.921Z,10.27
2019-03-01T20:54:03.585Z,10.10
2019-03-01T20:56:39.031Z,10.22
2019-03-01T20:59:16.223Z,10.22
2019-03-01T21:01:53.994Z,10.16
2019-03-01T21:04:29.101Z,10.00
2019-03-01T21:07:03.815Z,10.27
2019-03-01T21:09:40.488Z,10.15
2019-03-01T21:12:14.773Z,10.36
2019-03-01T21:14:50.021Z,10.36
2019-03-01T21:17:26.324Z,10.41
2019-03-01T21:20:01.319Z,10.50
2019-03-01T21:22:36.599Z,10.53
2019-03-01T21:25:14.872Z,10.53
2019-03-01T21:27:50.706Z,10.21
2019-03-01T21:30:27.052Z,10.10
2019-03-01T21:33:02.131Z,10.31
2019-03-01T21:35:37.040Z,10.46
2019-03-01T21:38:15.864Z,10.64
2019-03-01T21:40:50.559Z,10.53
2019-03-01T21:43:25.518Z,10.40
2019-03-01T21:46:01.008Z,10.40
2019-03-01T21:48:37.280Z,10.12
2019-03-01T21:51:14.808Z,10.28
2019-03-01T21:53:49.325Z,10.11
2019-03-01T21:56:24.359Z,10.34
2019-03-01T21:58:59.467Z,10.06
2019-03-01T22:01:37.623Z,10.11
2019-03-01T22:04:11.708Z,10.16
2019-03-01T22:06:47.529Z,9.96
2019-03-01T22:09:24.363Z,10.08
2019-03-01T22:11:58.737Z,10.08
2019-03-01T22:14:41.451Z,10.30
2019-03-01T22:17:16.039Z,10.36
2019-03-01T22:19:52.343Z,10.31
2019-03-01T22:22:27.321Z,10.43
2019-03-01T22:25:02.292Z,10.31
2019-03-01T22:27:36.480Z,10.28
2019-03-01T22:30:19.698Z,10.05
2019-03-01T22:32:52.834Z,10.05
2019-03-01T22:35:27.328Z,10.33
2019-03-01T22:38:04.586Z,10.19
2019-03-01T22:40:38.827Z,10.30
2019-03-01T22:43:13.587Z,10.17
2019-03-01T22:45:48.903Z,10.07
2019-03-01T22:48:23.812Z,10.10
2019-03-01T22:50:58.893Z,9.73
2019-03-01T22:53:33.664Z,9.77
2019-03-01T22:56:12.068Z,9.78
2019-03-01T22:58:46.867Z,9.78
2019-03-01T23:01:42.616Z,9.96
2019-03-01T23:04:16.612Z,10.01
2019-03-01T23:06:52.724Z,10.20
2019-03-01T23:09:27.734Z,10.09
2019-03-01T23:12:07.977Z,10.25
2019-03-01T23:14:41.836Z,10.29
2019-03-01T23:17:17.030Z,10.40
2019-03-01T23:19:53.008Z,10.23
2019-03-01T23:22:28.670Z,10.11
2019-03-01T23:25:07.706Z,10.38
2019-03-01T23:27:40.989Z,10.02
2019-03-01T23:30:17.376Z,9.99
2019-03-01T23:32:55.714Z,9.88
2019-03-01T23:35:30.035Z,9.88
2019-03-01T23:38:05.422Z,10.05
2019-03-01T23:40:40.991Z,10.22
2019-03-01T23:43:16.044Z,9.84
2019-03-01T23:45:53.740Z,10.00
2019-03-01T23:48:28.246Z,10.00
2019-03-01T23:51:06.603Z,10.16
2019-03-01T23:53:40.569Z,10.25
2019-03-01T23:56:16.553Z,9.99
2019-03-01T23:58:51.897Z,9.99
